Boones Mill, VA (24065)

7:14 PM EDT on July 06, 2015 (GMT -0400)
Church of the Holy Spirit (Anglican) | | Change Station
CLOSE
Current Station
Personal Weather Station
Location: Roanoke, VA
Elevation: 1237 ft
Nearby Weather Stations

Elev 1237 ft 37.20 °N, 80.01 °W | Updated 19 seconds ago

Mostly Cloudy
Mostly Cloudy
72.5 °F
Feels Like 72.5 °F
N
0.0
Wind Variable Wind from SSW
Gusts 0.0 mph

Today
High -- | Low -- °F
--% Chance of Precip.
Yesterday
High -- | Low -- °F
Precip. -- in
6:05 AM 8:43 PM
Waning Gibbous, 71% visible
Pressure 30.05 in
Visibility 10.0 miles
Clouds Few 6000 ft
Scattered Clouds 8000 ft
Mostly Cloudy 10000 ft
Dew Point 69 °F
Humidity 90%
Rainfall 1.11 in
Snow Depth Not available.
UV 1.0 out of 12
Pollen .50 out of 12
Air Quality Not available.
Flu Activity Not available.
METAR KROA 062254Z COR 25008KT 10SM -RA FEW060 SCT080 BKN100 26/19 A3008 RMK AO2 RAB39 SLP175 P0000 T02560194

More Conditions Fewer Conditions

Pressure 30.05 in
Visibility 10.0 miles
Clouds Few 6000 ft
Scattered Clouds 8000 ft
Mostly Cloudy 10000 ft
Dew Point 69 °F
Humidity 90%
Rainfall 1.11 in
Snow Depth Not available.
UV 1.0 out of 12
Pollen .50 out of 12
Air Quality Not available.
Flu Activity Not available.
METAR KROA 062254Z COR 25008KT 10SM -RA FEW060 SCT080 BKN100 26/19 A3008 RMK AO2 RAB39 SLP175 P0000 T02560194

More Conditions Fewer Conditions

Nowcast | as of 6:28 PM EDT on July 6, 2015

at 627 PM EDT...Doppler radar indicated a line of showers...extending from near Peaks of Otter Recreation Area to Stewartsville to near Burnt Chimney moving east at 15 mph. Brief...locally heavy rain is expected with a few of these showers. An isolated thunderstorm may develop. Locations impacted include... Stewartsville... Montvale... Moneta... North Shore... and northwest Smith Mountain Lake.

×

10-Day Weather Forecast

×

Almanac

Astronomy

Jul. 06, 2015 Rise Set
Actual Time
Civil Twilight
Nautical Twilight
Astronomical Twilight
Moon
Length of Visible Light
Length of Day
Tomorrow will be .
, % of the Moon is Illuminated

Today's Extremes

State Highs State Lows

Community

WunderPhotos

Upload Photos

1,835,674 photos uploaded!

WunderBlogs® & News

Nearby

Air Quality

  Air Quality AQ Index Pollutant
Not available.

Snow Depth

Station Depth Elevation

Earthquake Activity

City Distance Mag. Time & Date
Minimum magnitude displayed is 2.5.

Coastal Water Temperatures

Place Temperature

Stations

Nearby Weather Stations

Station Location Temp. Windchill Dew Point Humidity Wind Precip. Elev Updated Type